sensor_id;sensor_type;location;lat;lon;timestamp;pressure;altitude;pressure_sealevel;temperature;humidity
9035;BME280;4552;43.422;24.592;2023-05-22T00:01:41;99793.16;;;17.97;84.51
9035;BME280;4552;43.422;24.592;2023-05-22T00:04:09;99783.50;;;18.33;83.01
9035;BME280;4552;43.422;24.592;2023-05-22T00:06:41;99785.44;;;18.11;83.20
9035;BME280;4552;43.422;24.592;2023-05-22T00:09:08;99783.34;;;18.17;83.50
9035;BME280;4552;43.422;24.592;2023-05-22T00:11:35;99787.72;;;18.37;82.09
9035;BME280;4552;43.422;24.592;2023-05-22T01:20:01;99767.75;;;16.08;100.00
9035;BME280;4552;43.422;24.592;2023-05-22T01:23:02;99757.25;;;15.83;100.00
9035;BME280;4552;43.422;24.592;2023-05-22T01:28:45;99748.84;;;15.49;100.00
9035;BME280;4552;43.422;24.592;2023-05-22T01:31:22;99747.44;;;15.39;100.00
9035;BME280;4552;43.422;24.592;2023-05-22T01:33:53;99747.56;;;15.34;100.00
9035;BME280;4552;43.422;24.592;2023-05-22T01:36:21;99760.25;;;15.25;100.00
9035;BME280;4552;43.422;24.592;2023-05-22T01:38:51;99755.88;;;15.24;100.00
9035;BME280;4552;43.422;24.592;2023-05-22T01:41:19;99752.88;;;15.10;100.00
9035;BME280;4552;43.422;24.592;2023-05-22T01:54:05;99754.97;;;15.00;100.00
9035;BME280;4552;43.422;24.592;2023-05-22T01:56:38;99757.22;;;15.11;100.00
9035;BME280;4552;43.422;24.592;2023-05-22T01:59:15;99754.97;;;15.00;100.00
9035;BME280;4552;43.422;24.592;2023-05-22T02:01:47;99733.56;;;14.85;100.00
9035;BME280;4552;43.422;24.592;2023-05-22T02:04:18;99746.41;;;14.94;100.00
9035;BME280;4552;43.422;24.592;2023-05-22T02:06:46;99750.13;;;14.88;100.00
9035;BME280;4552;43.422;24.592;2023-05-22T02:09:16;99750.28;;;14.84;100.00
9035;BME280;4552;43.422;24.592;2023-05-22T02:11:45;99756.81;;;15.23;100.00
9035;BME280;4552;43.422;24.592;2023-05-22T02:14:12;99754.88;;;15.28;100.00
9035;BME280;4552;43.422;24.592;2023-05-22T02:16:40;99751.63;;;15.20;100.00
9035;BME280;4552;43.422;24.592;2023-05-22T02:19:11;99759.47;;;14.97;100.00
9035;BME280;4552;43.422;24.592;2023-05-22T02:21:38;99752.28;;;15.02;100.00
9035;BME280;4552;43.422;24.592;2023-05-22T02:24:05;99762.28;;;15.17;100.00
9035;BME280;4552;43.422;24.592;2023-05-22T02:26:34;99759.25;;;15.03;100.00
9035;BME280;4552;43.422;24.592;2023-05-22T02:39:06;99777.56;;;15.07;100.00
9035;BME280;4552;43.422;24.592;2023-05-22T02:41:34;99776.41;;;15.16;100.00
9035;BME280;4552;43.422;24.592;2023-05-22T02:47:23;99768.28;;;14.71;100.00
9035;BME280;4552;43.422;24.592;2023-05-22T02:49:50;99774.69;;;14.63;100.00
9035;BME280;4552;43.422;24.592;2023-05-22T02:52:17;99779.78;;;14.41;100.00
9035;BME280;4552;43.422;24.592;2023-05-22T02:54:44;99780.94;;;14.33;100.00
9035;BME280;4552;43.422;24.592;2023-05-22T03:20:45;99770.78;;;13.91;100.00
9035;BME280;4552;43.422;24.592;2023-05-22T03:23:12;99761.91;;;13.94;100.00
9035;BME280;4552;43.422;24.592;2023-05-22T03:25:42;99768.16;;;13.91;100.00
9035;BME280;4552;43.422;24.592;2023-05-22T03:28:09;99771.41;;;14.00;100.00
9035;BME280;4552;43.422;24.592;2023-05-22T03:30:36;99770.84;;;14.18;100.00
9035;BME280;4552;43.422;24.592;2023-05-22T03:33:03;99766.31;;;14.24;100.00
9035;BME280;4552;43.422;24.592;2023-05-22T03:35:30;99766.59;;;14.14;100.00
9035;BME280;4552;43.422;24.592;2023-05-22T03:37:58;99770.91;;;14.16;100.00
9035;BME280;4552;43.422;24.592;2023-05-22T03:40:25;99775.00;;;14.26;100.00
9035;BME280;4552;43.422;24.592;2023-05-22T03:56:21;99776.91;;;14.75;100.00
9035;BME280;4552;43.422;24.592;2023-05-22T04:02:13;99780.53;;;14.72;100.00
9035;BME280;4552;43.422;24.592;2023-05-22T04:04:41;99783.97;;;14.74;100.00
9035;BME280;4552;43.422;24.592;2023-05-22T04:07:10;99789.19;;;15.02;100.00
9035;BME280;4552;43.422;24.592;2023-05-22T04:09:38;99783.75;;;15.06;100.00
9035;BME280;4552;43.422;24.592;2023-05-22T04:12:07;99784.59;;;15.07;100.00
9035;BME280;4552;43.422;24.592;2023-05-22T04:14:38;99787.94;;;15.38;100.00
9035;BME280;4552;43.422;24.592;2023-05-22T04:17:06;99781.44;;;15.48;100.00
9035;BME280;4552;43.422;24.592;2023-05-22T04:19:33;99787.28;;;15.56;100.00
9035;BME280;4552;43.422;24.592;2023-05-22T04:22:00;99791.16;;;15.94;100.00
9035;BME280;4552;43.422;24.592;2023-05-22T04:24:27;99798.81;;;16.67;100.00
9035;BME280;4552;43.422;24.592;2023-05-22T04:26:54;99794.94;;;17.58;100.00
9035;BME280;4552;43.422;24.592;2023-05-22T04:42:52;99801.69;;;17.65;96.04
9035;BME280;4552;43.422;24.592;2023-05-22T04:45:20;99805.88;;;17.89;93.04
9035;BME280;4552;43.422;24.592;2023-05-22T04:47:49;99802.44;;;17.87;92.60
9035;BME280;4552;43.422;24.592;2023-05-22T04:50:17;99807.53;;;17.53;92.98
9035;BME280;4552;43.422;24.592;2023-05-22T04:52:45;99797.59;;;17.38;95.95
9035;BME280;4552;43.422;24.592;2023-05-22T04:55:12;99807.03;;;17.83;93.30
9035;BME280;4552;43.422;24.592;2023-05-22T05:21:14;99809.50;;;19.15;81.98
9035;BME280;4552;43.422;24.592;2023-05-22T05:23:41;99809.25;;;19.02;84.46
9035;BME280;4552;43.422;24.592;2023-05-22T05:26:08;99812.56;;;19.07;84.67
9035;BME280;4552;43.422;24.592;2023-05-22T05:28:36;99818.31;;;18.98;83.02
9035;BME280;4552;43.422;24.592;2023-05-22T05:31:03;99810.38;;;18.44;85.27
9035;BME280;4552;43.422;24.592;2023-05-22T05:33:30;99815.94;;;18.75;83.75
9035;BME280;4552;43.422;24.592;2023-05-22T05:35:56;99813.84;;;18.46;85.31
9035;BME280;4552;43.422;24.592;2023-05-22T05:38:25;99810.25;;;18.47;86.20
9035;BME280;4552;43.422;24.592;2023-05-22T05:40:52;99803.84;;;18.86;84.68
9035;BME280;4552;43.422;24.592;2023-05-22T05:43:19;99811.41;;;18.77;85.24
9035;BME280;4552;43.422;24.592;2023-05-22T05:45:46;99817.91;;;18.53;86.91
9035;BME280;4552;43.422;24.592;2023-05-22T05:48:13;99811.25;;;19.50;83.92
9035;BME280;4552;43.422;24.592;2023-05-22T05:50:40;99825.56;;;20.29;79.27
9035;BME280;4552;43.422;24.592;2023-05-22T05:53:07;99815.91;;;21.05;71.68
9035;BME280;4552;43.422;24.592;2023-05-22T05:55:35;99820.84;;;20.66;72.92
9035;BME280;4552;43.422;24.592;2023-05-22T06:11:37;99839.97;;;22.06;66.47
9035;BME280;4552;43.422;24.592;2023-05-22T06:14:04;99842.97;;;22.42;64.26
9035;BME280;4552;43.422;24.592;2023-05-22T06:16:32;99838.31;;;22.46;66.15
9035;BME280;4552;43.422;24.592;2023-05-22T06:18:59;99850.34;;;21.82;64.49
9035;BME280;4552;43.422;24.592;2023-05-22T06:21:26;99848.34;;;21.56;67.18
9035;BME280;4552;43.422;24.592;2023-05-22T06:23:53;99848.72;;;21.50;68.14
9035;BME280;4552;43.422;24.592;2023-05-22T06:26:20;99850.22;;;21.25;68.83
9035;BME280;4552;43.422;24.592;2023-05-22T06:28:49;99847.28;;;21.00;70.84
9035;BME280;4552;43.422;24.592;2023-05-22T06:31:16;99845.00;;;21.23;69.37
9035;BME280;4552;43.422;24.592;2023-05-22T06:33:43;99839.13;;;20.87;70.39
9035;BME280;4552;43.422;24.592;2023-05-22T06:36:10;99838.75;;;20.93;72.11
9035;BME280;4552;43.422;24.592;2023-05-22T06:38:39;99830.16;;;21.19;71.27
9035;BME280;4552;43.422;24.592;2023-05-22T06:41:06;99819.53;;;20.73;70.58
9035;BME280;4552;43.422;24.592;2023-05-22T06:47:07;99830.59;;;20.18;73.25
9035;BME280;4552;43.422;24.592;2023-05-22T06:49:35;99828.91;;;20.00;74.49
9035;BME280;4552;43.422;24.592;2023-05-22T06:52:03;99828.75;;;20.03;75.30
9035;BME280;4552;43.422;24.592;2023-05-22T06:54:30;99829.50;;;19.90;75.22
9035;BME280;4552;43.422;24.592;2023-05-22T06:56:57;99829.88;;;19.82;75.51
9035;BME280;4552;43.422;24.592;2023-05-22T06:59:25;99831.28;;;19.89;75.87
9035;BME280;4552;43.422;24.592;2023-05-22T07:01:52;99831.09;;;19.92;74.25
9035;BME280;4552;43.422;24.592;2023-05-22T07:04:20;99828.31;;;19.78;74.82
9035;BME280;4552;43.422;24.592;2023-05-22T07:06:47;99830.31;;;19.90;74.90
9035;BME280;4552;43.422;24.592;2023-05-22T07:09:14;99820.72;;;20.20;75.33
9035;BME280;4552;43.422;24.592;2023-05-22T07:11:42;99828.81;;;20.50;72.36
9035;BME280;4552;43.422;24.592;2023-05-22T07:14:08;99825.22;;;20.67;71.99
9035;BME280;4552;43.422;24.592;2023-05-22T07:16:37;99829.16;;;20.91;70.07
9035;BME280;4552;43.422;24.592;2023-05-22T07:19:04;99814.75;;;20.63;71.00
9035;BME280;4552;43.422;24.592;2023-05-22T07:21:34;99823.94;;;20.74;69.46
9035;BME280;4552;43.422;24.592;2023-05-22T07:24:01;99824.25;;;21.14;68.18
9035;BME280;4552;43.422;24.592;2023-05-22T07:26:33;99803.41;;;20.76;69.69
9035;BME280;4552;43.422;24.592;2023-05-22T07:29:00;99815.63;;;20.64;70.35
9035;BME280;4552;43.422;24.592;2023-05-22T07:31:27;99815.00;;;20.59;70.54
9035;BME280;4552;43.422;24.592;2023-05-22T07:33:56;99814.75;;;20.79;68.69
9035;BME280;4552;43.422;24.592;2023-05-22T07:36:23;99822.72;;;20.95;67.65
9035;BME280;4552;43.422;24.592;2023-05-22T07:38:51;99811.13;;;20.80;69.86
9035;BME280;4552;43.422;24.592;2023-05-22T07:41:18;99809.84;;;20.72;70.27
9035;BME280;4552;43.422;24.592;2023-05-22T08:55:18;99811.63;;;21.61;65.72
9035;BME280;4552;43.422;24.592;2023-05-22T08:57:45;99803.94;;;21.71;66.49
9035;BME280;4552;43.422;24.592;2023-05-22T09:00:14;99806.63;;;22.27;65.57
9035;BME280;4552;43.422;24.592;2023-05-22T09:02:41;99799.06;;;22.48;64.42
9035;BME280;4552;43.422;24.592;2023-05-22T09:05:08;99810.03;;;22.43;63.04
9035;BME280;4552;43.422;24.592;2023-05-22T09:07:35;99801.91;;;21.90;64.34
9035;BME280;4552;43.422;24.592;2023-05-22T09:10:10;99807.97;;;22.06;64.14
9035;BME280;4552;43.422;24.592;2023-05-22T09:13:21;99807.97;;;22.34;62.21
9035;BME280;4552;43.422;24.592;2023-05-22T09:15:51;99809.84;;;22.60;62.13
9035;BME280;4552;43.422;24.592;2023-05-22T09:18:26;99802.63;;;22.34;62.32
9035;BME280;4552;43.422;24.592;2023-05-22T09:20:56;99791.19;;;22.18;63.43
9035;BME280;4552;43.422;24.592;2023-05-22T09:23:29;99801.84;;;22.60;62.19
9035;BME280;4552;43.422;24.592;2023-05-22T09:26:00;99801.16;;;22.57;62.01
9035;BME280;4552;43.422;24.592;2023-05-22T09:28:33;99814.38;;;22.72;62.30
9035;BME280;4552;43.422;24.592;2023-05-22T09:31:02;99807.16;;;22.87;60.94
9035;BME280;4552;43.422;24.592;2023-05-22T09:33:30;99793.34;;;23.07;59.28
9035;BME280;4552;43.422;24.592;2023-05-22T09:35:58;99794.63;;;23.28;58.87
9035;BME280;4552;43.422;24.592;2023-05-22T09:38:27;99789.06;;;23.31;59.93
9035;BME280;4552;43.422;24.592;2023-05-22T09:40:54;99793.19;;;23.22;59.62
9035;BME280;4552;43.422;24.592;2023-05-22T09:43:22;99792.91;;;23.27;59.87
9035;BME280;4552;43.422;24.592;2023-05-22T09:45:59;99785.03;;;23.11;60.01
9035;BME280;4552;43.422;24.592;2023-05-22T09:48:26;99780.72;;;22.96;60.73
9035;BME280;4552;43.422;24.592;2023-05-22T09:50:53;99788.53;;;23.38;60.34
9035;BME280;4552;43.422;24.592;2023-05-22T09:53:25;99790.94;;;23.68;59.97
9035;BME280;4552;43.422;24.592;2023-05-22T09:55:55;99775.66;;;23.18;60.14
9035;BME280;4552;43.422;24.592;2023-05-22T09:58:23;99776.72;;;22.77;62.14
9035;BME280;4552;43.422;24.592;2023-05-22T10:00:52;99780.41;;;22.74;62.21
9035;BME280;4552;43.422;24.592;2023-05-22T10:03:23;99785.44;;;23.05;60.78
9035;BME280;4552;43.422;24.592;2023-05-22T10:05:53;99788.38;;;22.88;61.15
9035;BME280;4552;43.422;24.592;2023-05-22T10:08:23;99786.63;;;22.75;60.76
9035;BME280;4552;43.422;24.592;2023-05-22T10:34:29;99765.97;;;22.91;53.85
9035;BME280;4552;43.422;24.592;2023-05-22T10:37:07;99762.84;;;23.11;53.98
9035;BME280;4552;43.422;24.592;2023-05-22T10:39:43;99759.44;;;23.21;54.18
9035;BME280;4552;43.422;24.592;2023-05-22T10:42:12;99758.53;;;23.47;52.33
9035;BME280;4552;43.422;24.592;2023-05-22T10:44:40;99755.31;;;23.03;50.08
9035;BME280;4552;43.422;24.592;2023-05-22T10:47:08;99764.03;;;22.93;50.29
9035;BME280;4552;43.422;24.592;2023-05-22T10:49:41;99761.41;;;23.05;50.46
9035;BME280;4552;43.422;24.592;2023-05-22T10:52:09;99753.75;;;23.13;53.00
9035;BME280;4552;43.422;24.592;2023-05-22T10:54:38;99745.16;;;23.35;52.93
9035;BME280;4552;43.422;24.592;2023-05-22T10:57:09;99751.78;;;23.42;52.44
9035;BME280;4552;43.422;24.592;2023-05-22T12:34:57;99651.41;;;24.12;55.77
9035;BME280;4552;43.422;24.592;2023-05-22T12:37:24;99649.53;;;24.25;56.08
9035;BME280;4552;43.422;24.592;2023-05-22T12:39:54;99643.22;;;24.26;55.78
9035;BME280;4552;43.422;24.592;2023-05-22T12:42:21;99654.78;;;24.73;53.50
9035;BME280;4552;43.422;24.592;2023-05-22T12:44:49;99644.44;;;24.80;53.56
9035;BME280;4552;43.422;24.592;2023-05-22T12:47:17;99642.94;;;25.10;57.13
9035;BME280;4552;43.422;24.592;2023-05-22T13:07:37;99634.31;;;24.49;52.47
9035;BME280;4552;43.422;24.592;2023-05-22T13:10:05;99626.09;;;24.63;53.16
9035;BME280;4552;43.422;24.592;2023-05-22T13:12:35;99617.47;;;24.94;51.67
9035;BME280;4552;43.422;24.592;2023-05-22T13:15:02;99618.78;;;24.88;49.45
9035;BME280;4552;43.422;24.592;2023-05-22T13:17:29;99610.19;;;24.38;52.26
9035;BME280;4552;43.422;24.592;2023-05-22T13:19:56;99609.63;;;24.22;50.03
9035;BME280;4552;43.422;24.592;2023-05-22T13:22:24;99619.97;;;24.03;48.79
9035;BME280;4552;43.422;24.592;2023-05-22T13:24:53;99614.00;;;23.99;49.60
9035;BME280;4552;43.422;24.592;2023-05-22T13:27:20;99605.66;;;24.04;49.30
9035;BME280;4552;43.422;24.592;2023-05-22T13:29:47;99605.88;;;24.01;51.14
9035;BME280;4552;43.422;24.592;2023-05-22T13:32:14;99604.91;;;23.89;51.97
9035;BME280;4552;43.422;24.592;2023-05-22T13:34:41;99601.31;;;24.14;52.59
9035;BME280;4552;43.422;24.592;2023-05-22T13:37:08;99597.50;;;24.05;53.49
9035;BME280;4552;43.422;24.592;2023-05-22T13:39:35;99595.09;;;23.53;56.05
9035;BME280;4552;43.422;24.592;2023-05-22T13:42:04;99603.00;;;23.55;55.68
9035;BME280;4552;43.422;24.592;2023-05-22T13:44:31;99592.53;;;23.39;55.07
9035;BME280;4552;43.422;24.592;2023-05-22T13:46:58;99599.72;;;23.14;56.52
9035;BME280;4552;43.422;24.592;2023-05-22T13:49:25;99589.97;;;23.00;57.17
9035;BME280;4552;43.422;24.592;2023-05-22T13:51:52;99595.09;;;23.03;56.48
9035;BME280;4552;43.422;24.592;2023-05-22T13:54:19;99605.56;;;23.06;56.33
9035;BME280;4552;43.422;24.592;2023-05-22T13:56:46;99597.47;;;22.95;57.16
9035;BME280;4552;43.422;24.592;2023-05-22T13:59:15;99595.84;;;23.05;56.20
9035;BME280;4552;43.422;24.592;2023-05-22T14:01:42;99583.13;;;22.96;56.83
9035;BME280;4552;43.422;24.592;2023-05-22T14:04:09;99590.19;;;22.97;56.75
9035;BME280;4552;43.422;24.592;2023-05-22T14:06:36;99576.72;;;23.11;56.47
9035;BME280;4552;43.422;24.592;2023-05-22T14:09:03;99585.69;;;23.48;57.03
9035;BME280;4552;43.422;24.592;2023-05-22T14:11:32;99581.06;;;23.62;55.50
9035;BME280;4552;43.422;24.592;2023-05-22T14:13:59;99576.38;;;23.53;55.64
9035;BME280;4552;43.422;24.592;2023-05-22T14:16:27;99581.63;;;23.17;55.97
9035;BME280;4552;43.422;24.592;2023-05-22T14:18:54;99579.28;;;23.00;55.52
9035;BME280;4552;43.422;24.592;2023-05-22T14:21:21;99584.41;;;23.16;55.79
9035;BME280;4552;43.422;24.592;2023-05-22T14:23:49;99568.50;;;23.02;56.52
9035;BME280;4552;43.422;24.592;2023-05-22T14:26:19;99579.28;;;23.13;57.21
9035;BME280;4552;43.422;24.592;2023-05-22T14:28:46;99583.03;;;22.98;56.81
9035;BME280;4552;43.422;24.592;2023-05-22T14:31:13;99573.84;;;23.02;57.07
9035;BME280;4552;43.422;24.592;2023-05-22T14:33:42;99574.63;;;23.29;55.18
9035;BME280;4552;43.422;24.592;2023-05-22T14:36:08;99574.94;;;23.24;53.08
9035;BME280;4552;43.422;24.592;2023-05-22T14:38:35;99571.38;;;23.36;52.75
9035;BME280;4552;43.422;24.592;2023-05-22T14:41:02;99566.47;;;23.43;51.58
9035;BME280;4552;43.422;24.592;2023-05-22T14:43:29;99563.72;;;23.32;48.95
9035;BME280;4552;43.422;24.592;2023-05-22T14:45:57;99565.81;;;23.14;47.96
9035;BME280;4552;43.422;24.592;2023-05-22T14:48:27;99569.69;;;23.23;47.28
9035;BME280;4552;43.422;24.592;2023-05-22T16:13:15;99585.69;;;22.85;49.89
9035;BME280;4552;43.422;24.592;2023-05-22T16:15:42;99590.72;;;22.38;49.16
9035;BME280;4552;43.422;24.592;2023-05-22T16:18:10;99564.63;;;22.16;48.74
9035;BME280;4552;43.422;24.592;2023-05-22T16:20:37;99570.72;;;21.92;48.17
9035;BME280;4552;43.422;24.592;2023-05-22T16:23:04;99572.47;;;21.93;48.59
9035;BME280;4552;43.422;24.592;2023-05-22T16:25:32;99574.28;;;21.78;50.50
9035;BME280;4552;43.422;24.592;2023-05-22T16:28:09;99577.31;;;21.72;52.30
9035;BME280;4552;43.422;24.592;2023-05-22T16:30:39;99564.44;;;21.52;55.73
9035;BME280;4552;43.422;24.592;2023-05-22T16:33:06;99562.44;;;21.56;58.73
9035;BME280;4552;43.422;24.592;2023-05-22T16:35:33;99560.53;;;21.58;58.64
9035;BME280;4552;43.422;24.592;2023-05-22T16:38:00;99561.56;;;21.55;60.55
9035;BME280;4552;43.422;24.592;2023-05-22T16:40:27;99554.81;;;21.64;58.51
9035;BME280;4552;43.422;24.592;2023-05-22T16:42:54;99560.66;;;21.83;57.27
9035;BME280;4552;43.422;24.592;2023-05-22T16:45:21;99565.81;;;21.72;58.01
9035;BME280;4552;43.422;24.592;2023-05-22T17:30:45;99648.25;;;20.45;72.50
9035;BME280;4552;43.422;24.592;2023-05-22T17:33:12;99651.22;;;20.55;72.88
9035;BME280;4552;43.422;24.592;2023-05-22T17:35:40;99649.03;;;20.47;72.37
9035;BME280;4552;43.422;24.592;2023-05-22T17:38:07;99652.50;;;20.48;71.98
9035;BME280;4552;43.422;24.592;2023-05-22T17:40:34;99652.09;;;20.55;71.69
9035;BME280;4552;43.422;24.592;2023-05-22T17:43:01;99647.63;;;20.26;71.59
9035;BME280;4552;43.422;24.592;2023-05-22T17:45:28;99674.13;;;20.28;73.31
9035;BME280;4552;43.422;24.592;2023-05-22T17:47:57;99668.44;;;20.03;74.89
9035;BME280;4552;43.422;24.592;2023-05-22T17:50:24;99671.84;;;19.89;75.85
9035;BME280;4552;43.422;24.592;2023-05-22T17:52:51;99663.63;;;19.78;76.46
9035;BME280;4552;43.422;24.592;2023-05-22T17:55:18;99670.22;;;19.71;77.49
9035;BME280;4552;43.422;24.592;2023-05-22T17:57:45;99674.56;;;19.57;78.83
9035;BME280;4552;43.422;24.592;2023-05-22T18:00:18;99674.91;;;19.51;79.97
9035;BME280;4552;43.422;24.592;2023-05-22T18:46:28;99697.34;;;18.77;85.11
9035;BME280;4552;43.422;24.592;2023-05-22T18:48:55;99714.22;;;18.76;86.29
9035;BME280;4552;43.422;24.592;2023-05-22T18:51:22;99709.69;;;18.61;86.85
9035;BME280;4552;43.422;24.592;2023-05-22T18:53:49;99707.81;;;18.97;85.83
9035;BME280;4552;43.422;24.592;2023-05-22T18:56:17;99718.66;;;18.92;85.33
9035;BME280;4552;43.422;24.592;2023-05-22T18:58:44;99723.25;;;18.89;84.34
9035;BME280;4552;43.422;24.592;2023-05-22T19:01:14;99718.75;;;18.91;84.69
9035;BME280;4552;43.422;24.592;2023-05-22T19:03:43;99725.00;;;18.90;84.15
9035;BME280;4552;43.422;24.592;2023-05-22T19:06:10;99712.19;;;18.81;84.03
9035;BME280;4552;43.422;24.592;2023-05-22T19:08:38;99719.69;;;18.90;83.64
9035;BME280;4552;43.422;24.592;2023-05-22T19:11:07;99728.44;;;18.75;84.75
9035;BME280;4552;43.422;24.592;2023-05-22T19:13:34;99728.25;;;18.61;85.27
9035;BME280;4552;43.422;24.592;2023-05-22T19:16:02;99727.47;;;18.76;85.00
9035;BME280;4552;43.422;24.592;2023-05-22T20:00:54;99738.88;;;18.05;91.18
9035;BME280;4552;43.422;24.592;2023-05-22T20:03:21;99742.56;;;18.03;89.83
9035;BME280;4552;43.422;24.592;2023-05-22T20:05:50;99733.59;;;17.87;92.09
9035;BME280;4552;43.422;24.592;2023-05-22T20:08:17;99735.19;;;17.91;92.44
9035;BME280;4552;43.422;24.592;2023-05-22T20:10:46;99735.91;;;17.76;93.59
9035;BME280;4552;43.422;24.592;2023-05-22T20:13:13;99722.59;;;17.77;94.76
9035;BME280;4552;43.422;24.592;2023-05-22T20:15:42;99726.44;;;17.89;93.27
9035;BME280;4552;43.422;24.592;2023-05-22T20:18:13;99731.16;;;17.82;93.07
9035;BME280;4552;43.422;24.592;2023-05-22T20:20:40;99729.66;;;17.77;93.68
9035;BME280;4552;43.422;24.592;2023-05-22T20:23:09;99734.00;;;17.78;93.26
9035;BME280;4552;43.422;24.592;2023-05-22T20:25:36;99758.94;;;17.74;94.03
9035;BME280;4552;43.422;24.592;2023-05-22T20:28:03;99756.00;;;17.80;92.75
9035;BME280;4552;43.422;24.592;2023-05-22T20:30:33;99757.41;;;17.87;92.58
9035;BME280;4552;43.422;24.592;2023-05-22T20:53:12;99749.97;;;17.76;93.50
9035;BME280;4552;43.422;24.592;2023-05-22T20:55:39;99752.97;;;17.69;94.35
9035;BME280;4552;43.422;24.592;2023-05-22T20:58:06;99752.25;;;17.84;93.28
9035;BME280;4552;43.422;24.592;2023-05-22T21:00:33;99754.84;;;17.85;93.86
9035;BME280;4552;43.422;24.592;2023-05-22T21:03:00;99734.13;;;17.56;96.06
9035;BME280;4552;43.422;24.592;2023-05-22T21:05:27;99741.50;;;17.50;96.93
9035;BME280;4552;43.422;24.592;2023-05-22T21:07:54;99739.63;;;17.52;97.83
9035;BME280;4552;43.422;24.592;2023-05-22T21:13:49;99745.38;;;17.41;97.17
9035;BME280;4552;43.422;24.592;2023-05-22T21:16:16;99748.31;;;17.55;97.08
9035;BME280;4552;43.422;24.592;2023-05-22T21:22:05;99748.78;;;17.83;93.44
9035;BME280;4552;43.422;24.592;2023-05-22T21:24:32;99752.34;;;18.01;94.47
9035;BME280;4552;43.422;24.592;2023-05-22T21:40:40;99743.63;;;17.80;93.21
9035;BME280;4552;43.422;24.592;2023-05-22T21:43:07;99743.09;;;17.72;94.17
9035;BME280;4552;43.422;24.592;2023-05-22T21:45:34;99737.81;;;17.72;94.70
9035;BME280;4552;43.422;24.592;2023-05-22T21:48:03;99754.47;;;17.93;93.67
9035;BME280;4552;43.422;24.592;2023-05-22T21:50:39;99758.94;;;17.92;93.75
9035;BME280;4552;43.422;24.592;2023-05-22T21:59:52;99758.97;;;17.54;97.43
9035;BME280;4552;43.422;24.592;2023-05-22T22:02:19;99751.22;;;17.49;97.45
9035;BME280;4552;43.422;24.592;2023-05-22T22:04:46;99750.44;;;17.47;97.40
9035;BME280;4552;43.422;24.592;2023-05-22T22:07:12;99745.44;;;17.40;98.09
9035;BME280;4552;43.422;24.592;2023-05-22T22:13:04;99748.38;;;17.13;99.69
9035;BME280;4552;43.422;24.592;2023-05-22T22:15:33;99754.31;;;17.18;100.00
9035;BME280;4552;43.422;24.592;2023-05-22T22:18:01;99751.28;;;17.27;99.87
9035;BME280;4552;43.422;24.592;2023-05-22T22:20:29;99744.00;;;17.12;99.78
9035;BME280;4552;43.422;24.592;2023-05-22T22:22:58;99743.66;;;17.00;100.00
9035;BME280;4552;43.422;24.592;2023-05-22T22:25:25;99742.88;;;16.98;100.00
9035;BME280;4552;43.422;24.592;2023-05-22T22:27:53;99745.66;;;16.95;100.00
9035;BME280;4552;43.422;24.592;2023-05-22T22:30:20;99734.50;;;16.88;100.00
9035;BME280;4552;43.422;24.592;2023-05-22T22:32:50;99740.97;;;17.01;100.00
9035;BME280;4552;43.422;24.592;2023-05-22T22:35:18;99731.19;;;17.03;100.00
9035;BME280;4552;43.422;24.592;2023-05-22T22:37:45;99721.16;;;17.30;99.98
9035;BME280;4552;43.422;24.592;2023-05-22T23:45:34;99699.19;;;15.83;100.00
9035;BME280;4552;43.422;24.592;2023-05-22T23:48:01;99695.38;;;15.67;100.00
9035;BME280;4552;43.422;24.592;2023-05-22T23:50:28;99704.69;;;15.77;100.00
9035;BME280;4552;43.422;24.592;2023-05-22T23:52:55;99698.09;;;15.66;100.00
9035;BME280;4552;43.422;24.592;2023-05-22T23:55:22;99710.03;;;15.76;100.00
9035;BME280;4552;43.422;24.592;2023-05-22T23:57:49;99713.16;;;15.62;100.00
